Euskara    
Meteorología y climatología de Navarra
Datos de la estación - Meteo Navarra

Estación de Yesa GN

Altitud 487 m.


Datos desde el 22/11/2020 hasta el 23/11/2020 en horario solar
Los datos son PROVISIONALES

Anterior Página 1 de 1 Siguiente Descargar: Formato para Excel 2000 o superior   Formato csv   Formato para OpenOffice Calc
Fecha Temperatura Humedad relativa Radiación global Insolación Precipitación Vel. viento 10 m Vel. viento 10 m Dir. viento 10 m
°C % W/m² s l/m² m/s km/h °
22/11/2020 0:00 3.1 82 0.0 0 0.0 4.7 16.8 102
22/11/2020 0:10 2.8 81 0.0 0 0.0 4.2 15.2 103
22/11/2020 0:20 2.7 81 0.0 0 0.0 4.2 15.1 103
22/11/2020 0:30 2.7 84 0.0 0 0.0 4.6 16.6 102
22/11/2020 0:40 2.6 85 0.0 0 0.0 3.3 11.8 106
22/11/2020 0:50 2.4 85 0.0 0 0.0 3.0 10.9 103
22/11/2020 1:00 2.2 85 0.0 0 0.0 3.0 10.8 101
22/11/2020 1:10 2.2 86 0.0 0 0.0 3.2 11.4 97
22/11/2020 1:20 2.2 87 0.0 0 0.0 2.9 10.5 104
22/11/2020 1:30 2.1 86 0.0 0 0.0 3.0 10.7 104
22/11/2020 1:40 2.1 86 0.0 0 0.0 3.7 13.4 100
22/11/2020 1:50 2.0 87 0.0 0 0.0 3.9 14.0 101
22/11/2020 2:00 1.8 88 0.0 0 0.0 4.5 16.3 102
22/11/2020 2:10 1.9 88 0.0 0 0.0 4.9 17.5 101
22/11/2020 2:20 1.6 88 0.0 0 0.0 4.8 17.3 104
22/11/2020 2:30 1.7 90 0.0 0 0.0 3.9 14.1 102
22/11/2020 2:40 1.5 88 0.0 0 0.0 4.4 15.8 99
22/11/2020 2:50 1.7 88 0.0 0 0.0 4.4 16.0 100
22/11/2020 3:00 1.7 86 0.0 0 0.0 3.4 12.4 103
22/11/2020 3:10 1.5 85 0.0 0 0.0 3.1 11.0 108
22/11/2020 3:20 1.4 85 0.0 0 0.0 3.5 12.5 105
22/11/2020 3:30 1.5 88 0.0 0 0.0 3.5 12.5 98
22/11/2020 3:40 1.1 88 0.0 0 0.0 3.2 11.5 100
22/11/2020 3:50 1.0 88 0.0 0 0.0 2.8 10.0 95
22/11/2020 4:00 0.9 88 0.0 0 0.0 3.5 12.7 106
22/11/2020 4:10 1.0 89 0.0 0 0.0 4.6 16.6 102
22/11/2020 4:20 0.9 90 0.0 0 0.0 4.2 15.1 99
22/11/2020 4:30 0.8 90 0.0 0 0.0 3.2 11.5 96
22/11/2020 4:40 0.8 89 0.0 0 0.0 2.7 9.7 102
22/11/2020 4:50 0.8 89 0.0 0 0.0 3.7 13.4 107
22/11/2020 5:00 0.8 91 0.0 0 0.0 4.2 15.1 102
22/11/2020 5:10 0.7 91 0.0 0 0.0 4.1 14.7 104
22/11/2020 5:20 0.7 90 0.0 0 0.0 4.2 15.2 104
22/11/2020 5:30 0.6 90 0.0 0 0.0 4.5 16.3 102
22/11/2020 5:40 0.5 90 0.0 0 0.0 4.2 15.0 99
22/11/2020 5:50 0.4 91 0.0 0 0.0 3.0 10.9 98
22/11/2020 6:00 0.3 91 0.0 0 0.0 2.9 10.3 96
22/11/2020 6:10 0.4 90 0.0 0 0.0 3.2 11.4 94
22/11/2020 6:20 0.3 90 0.0 0 0.0 3.8 13.6 98
22/11/2020 6:30 0.4 90 0.0 0 0.0 3.9 14.1 101
22/11/2020 6:40 0.2 90 0.0 0 0.0 4.9 17.5 101
22/11/2020 6:50 0.3 91 0.0 0 0.0 4.5 16.3 103
22/11/2020 7:00 0.4 92 0.0 0 0.0 4.2 14.9 108
22/11/2020 7:10 0.3 91 0.0 0 0.0 4.4 15.8 102
22/11/2020 7:20 0.3 91 0.0 0 0.0 4.2 15.2 97
22/11/2020 7:30 0.1 91 2.0 0 0.0 3.5 12.5 96
22/11/2020 7:40 0.3 89 15.8 0 0.0 2.8 10.2 97
22/11/2020 7:50 0.2 91 38.5 166 0.0 2.4 8.6 109
22/11/2020 8:00 0.6 91 102.4 600 0.0 1.8 6.6 111
22/11/2020 8:10 1.0 89 127.7 600 0.0 1.0 3.5 110
22/11/2020 8:20 1.2 87 153.5 600 0.0 1.4 5.0 114
22/11/2020 8:30 1.6 86 179.2 600 0.0 1.2 4.3 111
22/11/2020 8:40 2.0 85 204.1 600 0.0 0.9 3.3 150
22/11/2020 8:50 2.2 82 229.3 600 0.0 1.3 4.5 144
22/11/2020 9:00 2.6 80 253.8 600 0.0 1.6 5.7 151
22/11/2020 9:10 3.0 77 277.0 600 0.0 1.4 4.9 150
22/11/2020 9:20 3.2 76 300.0 600 0.0 1.8 6.6 143
22/11/2020 9:30 3.6 74 322.2 600 0.0 1.7 6.0 143
22/11/2020 9:40 4.1 72 343.1 600 0.0 1.8 6.3 148
22/11/2020 9:50 4.5 69 362.9 600 0.0 1.4 5.0 149
22/11/2020 10:00 4.8 69 379.4 600 0.0 1.9 6.7 144
22/11/2020 10:10 5.0 69 397.1 600 0.0 1.8 6.4 145
22/11/2020 10:20 5.2 68 414.1 600 0.0 2.0 7.3 145
22/11/2020 10:30 5.3 67 427.6 600 0.0 2.0 7.1 148
22/11/2020 10:40 5.9 64 439.4 600 0.0 1.6 5.8 152
22/11/2020 10:50 6.6 60 449.6 600 0.0 1.7 6.2 158
22/11/2020 11:00 6.8 59 459.6 600 0.0 2.0 7.1 133
22/11/2020 11:10 7.2 61 467.6 600 0.0 1.4 4.9 162
22/11/2020 11:20 7.7 59 473.6 600 0.0 1.2 4.4 174
22/11/2020 11:30 8.1 58 476.3 600 0.0 0.8 3.0 156
22/11/2020 11:40 9.0 57 479.7 600 0.0 1.3 4.6 190
22/11/2020 11:50 9.2 56 481.1 600 0.0 0.9 3.3 256
22/11/2020 12:00 9.4 56 480.6 600 0.0 1.2 4.3 218
22/11/2020 12:10 10.0 54 478.8 600 0.0 1.3 4.6 231
22/11/2020 12:20 10.5 54 473.7 600 0.0 0.9 3.3 231
22/11/2020 12:30 10.7 55 467.3 600 0.0 1.2 4.3 253
22/11/2020 12:40 11.1 54 461.3 600 0.0 1.2 4.4 205
22/11/2020 12:50 11.4 51 453.6 600 0.0 0.9 3.1 263
22/11/2020 13:00 11.4 50 443.6 600 0.0 1.5 5.3 224
22/11/2020 13:10 11.3 49 433.0 600 0.0 1.1 3.9 270
22/11/2020 13:20 11.3 49 419.4 600 0.0 0.9 3.1 231
22/11/2020 13:30 10.9 47 404.2 600 0.0 1.0 3.6 255
22/11/2020 13:40 11.1 49 389.6 600 0.0 1.1 3.8 225
22/11/2020 13:50 11.5 48 373.0 600 0.0 1.2 4.2 214
22/11/2020 14:00 11.3 46 355.1 600 0.0 1.1 4.1 224
22/11/2020 14:10 11.4 45 336.0 600 0.0 1.3 4.6 207
22/11/2020 14:20 11.2 44 311.3 600 0.0 1.2 4.1 277
22/11/2020 14:30 11.1 43 286.6 600 0.0 1.0 3.4 221
22/11/2020 14:40 11.2 44 260.3 600 0.0 1.0 3.5 230
22/11/2020 14:50 11.4 45 237.4 600 0.0 0.9 3.1 205
22/11/2020 15:00 11.2 45 203.4 600 0.0 0.7 2.5 269
22/11/2020 15:10 11.2 45 188.2 600 0.0 1.0 3.4 250
22/11/2020 15:20 11.2 46 153.6 600 0.0 0.6 2.1 242
22/11/2020 15:30 11.2 46 68.5 152 0.0 0.8 2.7 259
22/11/2020 15:40 11.1 48 31.6 0 0.0 0.4 1.5 250
22/11/2020 15:50 10.5 51 27.2 0 0.0 0.5 1.9 272
22/11/2020 16:00 9.7 55 24.7 0 0.0 0.6 2.1 293
22/11/2020 16:10 9.1 58 20.5 0 0.0 0.6 2.0 289
22/11/2020 16:20 8.3 61 8.9 0 0.0 0.8 3.0 297
22/11/2020 16:30 7.4 65 0.0 0 0.0 1.2 4.5 299
22/11/2020 16:40 6.8 68 0.0 0 0.0 1.1 4.0 309
22/11/2020 16:50 6.1 72 0.0 0 0.0 1.3 4.7 327
22/11/2020 17:00 5.9 73 0.0 0 0.0 1.0 3.7 312
22/11/2020 17:10 5.8 73 0.0 0 0.0 0.3 1.1 296
22/11/2020 17:20 5.0 75 0.0 0 0.0 0.4 1.3 329
22/11/2020 17:30 4.6 77 0.0 0 0.0 0.3 1.0 328
22/11/2020 17:40 4.3 78 0.0 0 0.0 0.1 0.5 220
22/11/2020 17:50 3.3 81 0.0 0 0.0 0.1 0.2 333
22/11/2020 18:00 3.1 83 0.0 0 0.0 0.1 0.4 353
22/11/2020 18:10 3.3 83 0.0 0 0.0 0.1 0.4 14
22/11/2020 18:20 2.6 84 0.0 0 0.0 0.1 0.4 346
22/11/2020 18:30 2.8 84 0.0 0 0.0 0.6 2.1 333
22/11/2020 18:40 2.4 85 0.0 0 0.0 0.4 1.5 73
22/11/2020 18:50 2.0 87 0.0 0 0.0 0.7 2.3 54
22/11/2020 19:00 2.2 87 0.0 0 0.0 0.7 2.6 103
22/11/2020 19:10 2.6 87 0.0 0 0.0 0.2 0.8 131
22/11/2020 19:20 2.3 86 0.0 0 0.0 0.5 1.7 85
22/11/2020 19:30 2.2 88 0.0 0 0.0 0.6 2.2 86
22/11/2020 19:40 1.6 88 0.0 0 0.0 0.7 2.4 105
22/11/2020 19:50 2.1 89 0.0 0 0.0 1.0 3.6 109
22/11/2020 20:00 2.0 91 0.0 0 0.0 0.8 2.8 121
22/11/2020 20:10 2.6 91 0.0 0 0.0 1.0 3.7 110
22/11/2020 20:20 3.5 90 0.0 0 0.0 1.4 5.0 109
22/11/2020 20:30 4.4 86 0.0 0 0.0 2.8 10.2 103
22/11/2020 20:40 4.8 83 0.0 0 0.0 3.2 11.6 102
22/11/2020 20:50 4.9 83 0.0 0 0.0 3.3 11.8 99
22/11/2020 21:00 4.8 83 0.0 0 0.0 3.1 11.2 100
22/11/2020 21:10 4.6 84 0.0 0 0.0 3.4 12.1 98
22/11/2020 21:20 4.5 84 0.0 0 0.0 3.7 13.3 97
22/11/2020 21:30 4.5 85 0.0 0 0.0 3.4 12.3 97
22/11/2020 21:40 4.3 85 0.0 0 0.0 3.3 12.0 102
22/11/2020 21:50 4.1 85 0.0 0 0.0 2.9 10.4 106
22/11/2020 22:00 4.0 85 0.0 0 0.0 3.6 13.0 103
22/11/2020 22:10 3.8 85 0.0 0 0.0 3.8 13.5 103
22/11/2020 22:20 3.8 86 0.0 0 0.0 3.7 13.3 100
22/11/2020 22:30 3.7 85 0.0 0 0.0 4.1 14.6 100
22/11/2020 22:40 3.9 84 0.0 0 0.0 3.4 12.2 102
22/11/2020 22:50 3.7 85 0.0 0 0.0 3.3 11.9 106
22/11/2020 23:00 3.6 86 0.0 0 0.0 3.8 13.5 106
22/11/2020 23:10 3.4 86 0.0 0 0.0 3.8 13.5 102
22/11/2020 23:20 3.4 87 0.0 0 0.0 4.0 14.2 96
22/11/2020 23:30 3.3 88 0.0 0 0.0 4.0 14.5 98
22/11/2020 23:40 3.0 88 0.0 0 0.0 3.6 12.9 101
22/11/2020 23:50 3.0 88 0.0 0 0.0 3.4 12.1 100
Anterior Página 1 de 1 Siguiente

NOTA: Tipo de datos según el color:
   - Valores diarios o 10 minutos correctos
   - Valores diarios calculados a partir de un número de datos 10 minutos menor que 144 y mayor que 120, o de un número de datos semihorarios menor que 48 y mayor que 40 (caso de las estaciones de INTIA Y Ministerio)
   - Valores diez minutos estimados


Contacto        Enlaces        Aviso legal